KMDQ

Huntsville Executive Tom Sharp Jr Field Airport

Huntsville, Alabama, USA
METAR KMDQ 221455Z AUTO 20003KT 10SM SCT026 SCT032 OVC039 23/19 A3012 RMK A01 T02340194
Observed Flight Rules
May-22 @ 14:55 UTC (27 minutes ago) Visual Flight Rules
Wind Visibility Clouds
200° at 3 knots 10 miles
  • Scattered at 2,600' AGL
  • Scattered at 3,200' AGL
  • Overcast at 3,900' AGL
Temperatures Readings
Current 23°C / 73°F
Dewpoint 19°C / 66°F
Humidity 78%
Altimeter 30.12" Hg
Pressure 1020 hPa
Elevation 230
METAR KMDQ 221455Z AUTO 20003KT 10SM SCT026 SCT032 OVC039 23/19 A3012 RMK A01 T02340194
Observed Flight Rules
May-22 @ 14:55 UTC
(27 minutes ago)
VFR
Wind Visibility
200° at 3 knots 10 miles
Clouds
  • Scattered at 2,600' AGL
  • Scattered at 3,200' AGL
  • Overcast at 3,900' AGL
Temperature Dewpoint
23°C / 73°F 19°C / 66°F
Humidity Altimeter Pressure
78% 30.12" Hg 1020 hPa